Time;durP1;ratioP1;P1;durP2;ratioP2;P2;SDS_P1;SDS_P2;PMS_P1;PMS_P2;Temp;Humidity;BMP_temperature;BMP_pressure;BME280_temperature;BME280_humidity;BME280_pressure;Samples;Min_cycle;Max_cycle;Signal;HPM_P1;HPM_P2
2022/06/04 00:01:36;;;;;;;0.00;0.00;;;;;;;17.62;51.03;102076.44;5048396;28;20037;-77
2022/06/04 00:04:03;;;;;;;0.00;0.00;;;;;;;17.61;51.01;102074.66;5050260;28;20649;-77
2022/06/04 00:06:29;;;;;;;0.00;0.00;;;;;;;17.57;51.41;102070.31;5056046;28;20033;-77
2022/06/04 00:08:56;;;;;;;0.00;0.00;;;;;;;17.53;50.83;102072.19;5041208;28;20440;-77
2022/06/04 00:16:54;;;;;;;0.32;0.32;;;;;;;17.40;51.57;102079.72;5050436;28;20041;-77
2022/06/04 00:19:21;;;;;;;0.00;0.00;;;;;;;17.37;51.37;102078.94;5051015;28;20025;-77
2022/06/04 00:21:48;;;;;;;0.20;0.20;;;;;;;17.35;51.45;102078.97;5051354;28;20039;-76
2022/06/04 00:24:14;;;;;;;0.00;0.00;;;;;;;17.29;51.34;102074.66;5041465;28;20026;-77
2022/06/04 00:26:40;;;;;;;0.10;0.10;;;;;;;17.22;51.13;102066.84;5048183;28;20033;-77
2022/06/04 00:29:09;;;;;;;0.10;0.10;;;;;;;17.22;50.88;102072.22;5049924;28;20044;-77
2022/06/04 00:31:36;;;;;;;0.00;0.00;;;;;;;17.17;52.31;102069.69;5047793;28;20030;-77
2022/06/04 00:34:04;;;;;;;0.00;0.00;;;;;;;17.16;51.88;102073.28;5047576;28;20158;-77
2022/06/04 00:36:32;;;;;;;0.03;0.03;;;;;;;17.12;51.91;102069.81;5051307;28;20025;-77
2022/06/04 00:38:59;;;;;;;0.00;0.00;;;;;;;17.11;51.52;102075.22;5047208;28;20041;-77
2022/06/04 00:41:54;;;;;;;0.00;0.00;;;;;;;17.12;52.47;102066.22;5040970;28;20049;-78
2022/06/04 00:47:25;;;;;;;0.10;0.10;;;;;;;17.05;52.88;102070.88;5066070;28;20402;-76
2022/06/04 00:49:51;;;;;;;0.22;0.22;;;;;;;16.97;52.73;102078.25;5018664;28;20124;-76
2022/06/04 00:52:18;;;;;;;0.00;0.00;;;;;;;16.97;52.13;102073.78;5024704;28;20029;-76
2022/06/04 00:54:47;;;;;;;0.00;0.00;;;;;;;16.96;52.44;102076.50;5028824;28;20030;-76
2022/06/04 01:00:08;;;;;;;0.15;0.15;;;;;;;17.02;52.39;102078.13;5058501;28;20788;-76
2022/06/04 01:02:56;;;;;;;1.02;1.02;;;;;;;16.91;53.51;102081.97;5037370;28;20104;-76
2022/06/04 01:06:02;;;;;;;0.30;0.30;;;;;;;16.95;53.26;102082.78;5037100;28;20026;-76
2022/06/04 01:14:30;;;;;;;0.20;0.20;;;;;;;16.84;53.71;102095.53;5089237;27;20910;-75
2022/06/04 01:17:15;;;;;;;0.15;0.15;;;;;;;16.82;53.05;102096.47;5098948;28;20023;-75
2022/06/04 01:25:46;;;;;;;0.00;0.00;;;;;;;16.81;52.87;102125.94;5067804;28;20390;-75
2022/06/04 01:28:16;;;;;;;0.55;0.55;;;;;;;16.76;54.33;102128.72;5041097;28;20584;-75
2022/06/04 01:33:41;;;;;;;0.00;0.00;;;;;;;16.91;53.11;102129.22;5072126;28;20131;-77
2022/06/04 01:36:19;;;;;;;0.40;0.40;;;;;;;16.87;53.28;102131.09;5052688;28;20392;-77
2022/06/04 01:38:55;;;;;;;0.08;0.08;;;;;;;16.86;53.05;102132.06;5061797;28;20037;-77
2022/06/04 01:41:28;;;;;;;0.10;0.10;;;;;;;16.76;53.56;102122.47;5051568;28;20075;-77
2022/06/04 01:44:00;;;;;;;0.20;0.20;;;;;;;16.79;53.03;102130.44;5052826;28;20040;-77
2022/06/04 01:46:40;;;;;;;0.20;0.20;;;;;;;16.80;53.57;102130.41;5052196;28;20124;-77
2022/06/04 01:52:12;;;;;;;0.00;0.00;;;;;;;16.76;54.12;102138.53;5104895;27;20659;-75
2022/06/04 01:54:47;;;;;;;0.05;0.05;;;;;;;16.79;53.97;102128.63;5105345;28;20039;-75
2022/06/04 01:57:23;;;;;;;0.90;0.90;;;;;;;16.82;53.71;102128.56;5099422;28;20036;-75
2022/06/04 01:59:53;;;;;;;0.10;0.10;;;;;;;16.71;53.53;102119.03;5091276;28;20024;-75
2022/06/04 02:02:29;;;;;;;0.03;0.03;;;;;;;16.76;53.92;102122.47;5089591;28;20050;-75
2022/06/04 02:05:00;;;;;;;0.08;0.08;;;;;;;16.73;53.55;102125.25;5095218;28;20119;-76
2022/06/04 02:07:32;;;;;;;0.10;0.10;;;;;;;16.70;53.60;102128.88;5093273;28;20734;-75
2022/06/04 02:12:44;;;;;;;0.00;0.00;;;;;;;16.55;53.55;102119.44;5064718;28;20403;-74
2022/06/04 02:15:15;;;;;;;0.08;0.08;;;;;;;16.57;54.14;102117.59;5064869;28;20033;-74
2022/06/04 02:17:47;;;;;;;0.10;0.10;;;;;;;16.55;53.86;102129.25;5060893;28;20062;-75
2022/06/04 02:20:14;;;;;;;0.43;0.43;;;;;;;16.49;53.78;102136.50;5042949;28;20029;-75
2022/06/04 02:22:41;;;;;;;0.00;0.00;;;;;;;16.47;54.11;102133.00;5045144;28;20120;-75
2022/06/04 02:25:11;;;;;;;0.13;0.13;;;;;;;16.45;53.78;102132.16;5035303;28;20459;-74
2022/06/04 02:27:37;;;;;;;0.03;0.03;;;;;;;16.39;54.19;102140.34;5038625;28;20033;-75
2022/06/04 02:30:04;;;;;;;0.10;0.10;;;;;;;16.40;54.03;102147.44;5040367;28;20029;-75
2022/06/04 02:35:23;;;;;;;0.20;0.20;;;;;;;16.33;54.15;102137.81;5106006;27;20477;-75
2022/06/04 02:45:46;;;;;;;0.00;0.00;;;;;;;16.26;54.82;102123.72;5085842;27;20356;-75
2022/06/04 02:48:23;;;;;;;0.00;0.00;;;;;;;16.26;55.12;102128.16;5083009;28;20085;-75
2022/06/04 02:53:33;;;;;;;0.10;0.10;;;;;;;16.20;54.57;102130.97;5066652;28;20754;-75
2022/06/04 02:56:06;;;;;;;0.10;0.10;;;;;;;16.17;55.49;102122.13;5062329;28;20819;-75
2022/06/04 02:58:34;;;;;;;0.05;0.05;;;;;;;16.10;55.13;102115.16;5065389;28;20033;-75
2022/06/04 03:01:04;;;;;;;0.00;0.00;;;;;;;16.16;55.13;102109.66;5056606;28;20051;-75
2022/06/04 03:03:30;;;;;;;0.00;0.00;;;;;;;16.09;56.21;102100.03;5066215;28;20120;-75
2022/06/04 03:06:01;;;;;;;0.13;0.13;;;;;;;16.05;55.87;102103.69;5059139;28;20068;-75
2022/06/04 03:08:30;;;;;;;0.00;0.00;;;;;;;16.01;55.29;102099.31;5055386;28;20040;-75
2022/06/04 03:10:56;;;;;;;0.10;0.10;;;;;;;16.03;55.96;102094.81;5053976;28;20074;-76
2022/06/04 03:13:22;;;;;;;0.43;0.43;;;;;;;16.01;55.63;102100.19;5052129;28;20082;-75
2022/06/04 03:15:49;;;;;;;0.10;0.10;;;;;;;15.98;56.70;102099.38;5064096;28;20074;-76
2022/06/04 03:18:16;;;;;;;0.10;0.10;;;;;;;15.99;56.38;102094.00;5060719;28;20082;-74
2022/06/04 03:20:43;;;;;;;0.00;0.00;;;;;;;15.96;55.99;102099.44;5058163;28;20025;-74
2022/06/04 03:23:09;;;;;;;0.00;0.00;;;;;;;15.98;56.29;102104.75;5058928;28;20025;-75
2022/06/04 03:25:36;;;;;;;0.10;0.10;;;;;;;15.98;56.27;102104.75;5057601;28;20032;-75
2022/06/04 03:28:04;;;;;;;0.00;0.00;;;;;;;16.00;56.04;102111.81;5055589;28;20537;-75
2022/06/04 03:30:30;;;;;;;0.22;0.22;;;;;;;15.96;56.31;102103.88;5059748;28;20578;-74
2022/06/04 03:32:57;;;;;;;0.20;0.20;;;;;;;15.97;56.43;102105.66;5058948;28;20029;-75
2022/06/04 03:35:25;;;;;;;0.00;0.00;;;;;;;15.96;56.27;102101.22;5054110;28;20138;-75
2022/06/04 03:37:51;;;;;;;0.00;0.00;;;;;;;15.97;56.35;102094.94;5058226;28;20052;-75
2022/06/04 03:40:17;;;;;;;0.10;0.10;;;;;;;15.94;56.26;102089.69;5051918;28;20029;-74
2022/06/04 03:42:44;;;;;;;0.00;0.00;;;;;;;15.93;56.98;102093.28;5052125;28;20024;-74
2022/06/04 03:45:11;;;;;;;0.00;0.00;;;;;;;15.90;57.22;102098.66;5054052;28;20033;-75
2022/06/04 03:47:38;;;;;;;0.10;0.10;;;;;;;15.93;57.19;102098.63;5052304;28;20032;-76
2022/06/04 03:50:09;;;;;;;0.10;0.10;;;;;;;15.92;57.13;102096.84;5057939;28;20518;-76
2022/06/04 03:52:35;;;;;;;0.08;0.08;;;;;;;15.91;57.36;102106.66;5050312;28;20036;-76
2022/06/04 03:55:01;;;;;;;0.00;0.00;;;;;;;15.96;56.35;102112.78;5060015;28;20082;-76
2022/06/04 03:57:37;;;;;;;0.03;0.03;;;;;;;15.96;56.86;102115.47;5056051;28;20052;-75
2022/06/04 04:02:45;;;;;;;0.30;0.30;;;;;;;15.96;57.14;102110.13;5065665;28;20411;-75
2022/06/04 04:05:13;;;;;;;0.10;0.10;;;;;;;16.07;56.37;102115.22;5063651;28;20505;-75
2022/06/04 04:07:40;;;;;;;0.00;0.00;;;;;;;16.10;56.41;102112.47;5067266;28;20036;-75
2022/06/04 04:10:09;;;;;;;0.17;0.17;;;;;;;16.14;56.74;102113.28;5060007;28;20029;-75
2022/06/04 04:12:35;;;;;;;0.10;0.10;;;;;;;16.16;56.97;102111.44;5057492;28;20033;-75
2022/06/04 04:15:02;;;;;;;0.00;0.00;;;;;;;16.15;56.86;102107.91;5061238;28;20394;-75
2022/06/04 04:17:28;;;;;;;0.05;0.05;;;;;;;16.15;56.41;102099.88;5061555;28;20033;-75
2022/06/04 04:19:55;;;;;;;0.22;0.22;;;;;;;16.20;56.22;102097.09;5056866;28;20024;-75
2022/06/04 04:22:21;;;;;;;0.00;0.00;;;;;;;16.23;56.84;102098.81;5061719;28;20032;-75
2022/06/04 04:24:47;;;;;;;0.00;0.00;;;;;;;16.24;57.27;102092.56;5057555;28;20469;-75
2022/06/04 04:27:14;;;;;;;0.05;0.05;;;;;;;16.27;56.50;102103.19;5061057;28;20036;-75
2022/06/04 04:29:41;;;;;;;0.20;0.20;;;;;;;16.25;57.55;102105.00;5058395;28;20033;-75
2022/06/04 04:32:08;;;;;;;0.45;0.45;;;;;;;16.29;56.93;102109.38;5055521;28;20025;-74
2022/06/04 04:34:34;;;;;;;0.45;0.45;;;;;;;16.30;56.84;102114.69;5054668;28;20036;-75
2022/06/04 04:37:00;;;;;;;0.28;0.28;;;;;;;16.32;56.88;102111.97;5061887;28;20521;-75
2022/06/04 04:39:26;;;;;;;0.03;0.03;;;;;;;16.28;57.10;102121.00;5064821;28;20029;-75
2022/06/04 04:41:52;;;;;;;0.30;0.30;;;;;;;16.28;57.42;102115.63;5058821;28;20029;-76
2022/06/04 04:44:19;;;;;;;7.05;2.25;;;;;;;16.26;57.71;102120.13;5057451;28;20091;-75
2022/06/04 04:46:45;;;;;;;0.05;0.05;;;;;;;16.29;57.01;102122.75;5066220;28;20037;-75
2022/06/04 04:49:11;;;;;;;0.17;0.17;;;;;;;16.24;57.77;102124.66;5055024;28;20029;-75
2022/06/04 04:51:37;;;;;;;0.03;0.03;;;;;;;16.23;58.02;102118.41;5054115;28;20048;-75
2022/06/04 04:54:04;;;;;;;0.03;0.03;;;;;;;16.24;58.36;102127.34;5059832;28;20514;-75
2022/06/04 04:56:30;;;;;;;0.03;0.03;;;;;;;16.24;57.98;102121.97;5052304;28;20036;-74
2022/06/04 04:58:56;;;;;;;0.00;0.00;;;;;;;16.25;57.64;102119.28;5059001;28;20028;-75
2022/06/04 05:01:26;;;;;;;0.00;0.00;;;;;;;16.27;57.74;102121.91;5050699;28;20032;-75
2022/06/04 05:03:53;;;;;;;0.10;0.10;;;;;;;16.29;58.25;102118.28;5051231;28;20064;-75
2022/06/04 05:06:20;;;;;;;0.03;0.03;;;;;;;16.39;57.42;102123.41;5059941;28;20032;-75
2022/06/04 05:08:49;;;;;;;0.10;0.10;;;;;;;16.44;57.93;102125.06;5053757;28;20138;-76
2022/06/04 05:11:18;;;;;;;0.20;0.20;;;;;;;16.52;57.60;102115.97;5065130;28;20584;-75
2022/06/04 05:13:49;;;;;;;0.10;0.10;;;;;;;16.52;57.25;102118.63;5046262;28;20036;-75
2022/06/04 05:16:18;;;;;;;0.00;0.00;;;;;;;16.58;56.70;102129.19;5041393;28;20029;-75
2022/06/04 05:18:45;;;;;;;0.17;0.17;;;;;;;16.57;56.88;102139.00;5033796;28;20052;-75
2022/06/04 05:21:23;;;;;;;0.00;0.00;;;;;;;16.63;56.89;102143.31;5040548;28;20430;-75
2022/06/04 05:23:50;;;;;;;0.00;0.00;;;;;;;16.53;56.91;102136.44;5041505;28;20037;-76
2022/06/04 05:26:17;;;;;;;0.15;0.15;;;;;;;16.58;56.93;102138.09;5048927;28;20083;-76
2022/06/04 05:28:45;;;;;;;0.20;0.20;;;;;;;16.59;56.78;102134.50;5044054;28;20561;-75
2022/06/04 05:31:11;;;;;;;0.10;0.10;;;;;;;16.61;56.37;102129.09;5046844;28;20029;-75
2022/06/04 05:33:37;;;;;;;0.10;0.10;;;;;;;16.55;56.54;102137.28;5041132;28;20032;-75
2022/06/04 05:36:04;;;;;;;0.00;0.00;;;;;;;16.61;56.41;102135.34;5045128;28;20051;-75
2022/06/04 05:38:34;;;;;;;0.57;0.50;;;;;;;16.63;56.60;102135.31;5048993;28;20083;-75
2022/06/04 05:41:04;;;;;;;0.22;0.22;;;;;;;16.71;56.36;102136.00;5047359;28;20107;-76
2022/06/04 05:43:30;;;;;;;0.00;0.00;;;;;;;16.75;56.25;102134.13;5040981;28;20071;-75
2022/06/04 05:45:59;;;;;;;0.00;0.00;;;;;;;16.77;56.00;102141.19;5040925;28;20295;-76
2022/06/04 05:48:26;;;;;;;0.10;0.10;;;;;;;16.86;55.65;102149.91;5036525;28;20029;-74
2022/06/04 05:50:53;;;;;;;0.00;0.00;;;;;;;16.93;55.72;102146.19;5042503;28;20403;-75
2022/06/04 05:53:20;;;;;;;0.10;0.10;;;;;;;17.01;55.62;102149.56;5041049;28;20032;-76
2022/06/04 05:55:46;;;;;;;0.00;0.00;;;;;;;16.93;55.59;102152.41;5048261;28;20059;-74
2022/06/04 05:58:12;;;;;;;0.00;0.00;;;;;;;17.05;55.75;102155.72;5036587;28;20092;-74
2022/06/04 06:00:38;;;;;;;0.10;0.10;;;;;;;17.12;55.13;102152.81;5044834;28;20079;-75
2022/06/04 06:03:04;;;;;;;0.10;0.10;;;;;;;17.14;55.11;102140.25;5045194;28;20036;-75
2022/06/04 06:05:31;;;;;;;2.83;1.23;;;;;;;17.14;55.56;102134.88;5034716;28;20510;-75
2022/06/04 06:07:58;;;;;;;0.10;0.10;;;;;;;17.22;56.08;102136.50;5039536;28;20540;-75
2022/06/04 06:10:25;;;;;;;0.10;0.10;;;;;;;17.32;55.75;102137.13;5042277;28;20111;-76
2022/06/04 06:12:53;;;;;;;0.00;0.00;;;;;;;17.43;55.03;102143.94;5050473;28;20037;-75
2022/06/04 06:15:19;;;;;;;0.00;0.00;;;;;;;17.60;55.64;102143.44;5043391;28;20024;-75
2022/06/04 06:17:46;;;;;;;0.10;0.10;;;;;;;17.75;55.20;102150.16;5042231;28;20116;-75
2022/06/04 06:20:13;;;;;;;0.30;0.30;;;;;;;17.88;54.97;102152.50;5043610;28;20021;-76
2022/06/04 06:22:39;;;;;;;4.18;1.38;;;;;;;18.13;54.54;102162.50;5046401;28;20100;-76
2022/06/04 06:25:06;;;;;;;0.20;0.20;;;;;;;18.25;53.82;102160.31;5049013;28;20055;-76
2022/06/04 06:27:33;;;;;;;0.00;0.00;;;;;;;18.30;53.76;102162.00;5041382;28;20041;-76
2022/06/04 06:29:59;;;;;;;0.10;0.10;;;;;;;18.32;53.85;102152.06;5039645;28;20060;-76
2022/06/04 06:32:26;;;;;;;0.38;0.32;;;;;;;18.39;53.10;102143.81;5043043;28;20045;-76
2022/06/04 06:34:52;;;;;;;0.00;0.00;;;;;;;18.41;52.85;102141.94;5049000;28;20106;-75
2022/06/04 06:37:18;;;;;;;0.55;0.55;;;;;;;18.56;53.12;102153.09;5050262;28;20032;-75
2022/06/04 06:39:44;;;;;;;0.10;0.10;;;;;;;18.58;52.79;102156.63;5039668;28;20497;-75
2022/06/04 06:42:11;;;;;;;0.28;0.28;;;;;;;18.64;52.99;102163.59;5041344;28;20163;-75
2022/06/04 06:44:37;;;;;;;0.00;0.00;;;;;;;18.66;52.58;102172.47;5044156;28;20124;-75
2022/06/04 06:47:04;;;;;;;0.03;0.03;;;;;;;18.66;52.34;102173.34;5048618;28;20714;-74
2022/06/04 06:49:30;;;;;;;0.00;0.00;;;;;;;18.62;52.07;102182.44;5040213;28;20430;-74
2022/06/04 06:52:00;;;;;;;0.00;0.00;;;;;;;18.79;52.20;102179.19;5036773;28;20017;-74
2022/06/04 06:54:31;;;;;;;3.92;0.80;;;;;;;18.90;51.80;102182.44;5043648;28;20492;-74
2022/06/04 06:56:58;;;;;;;0.08;0.08;;;;;;;18.98;52.41;102200.97;5041533;28;20032;-76
2022/06/04 06:59:25;;;;;;;0.25;0.25;;;;;;;19.12;51.99;102205.00;5042099;28;20037;-75
2022/06/04 07:01:53;;;;;;;0.00;0.00;;;;;;;19.11;52.02;102201.41;5042961;28;20032;-75
2022/06/04 07:04:21;;;;;;;0.00;0.00;;;;;;;19.19;51.87;102198.47;5047807;28;20044;-73
2022/06/04 07:06:50;;;;;;;0.65;0.65;;;;;;;19.24;51.44;102197.38;5043418;28;20055;-74
2022/06/04 07:09:21;;;;;;;0.10;0.10;;;;;;;19.19;50.92;102190.41;5036358;28;20056;-74
2022/06/04 07:11:47;;;;;;;0.30;0.30;;;;;;;19.26;51.28;102189.25;5049309;28;20405;-75
2022/06/04 07:14:14;;;;;;;11.00;1.27;;;;;;;19.26;50.93;102191.09;5039844;28;20120;-76
2022/06/04 07:16:42;;;;;;;0.10;0.10;;;;;;;19.22;50.92;102198.38;5041404;28;20120;-75
2022/06/04 07:19:09;;;;;;;1.45;0.43;;;;;;;19.17;51.48;102192.28;5044378;28;20047;-76
2022/06/04 07:21:36;;;;;;;0.47;0.47;;;;;;;19.33;51.07;102196.19;5035878;28;20071;-76
2022/06/04 07:24:02;;;;;;;0.90;0.85;;;;;;;19.38;51.09;102198.72;5043808;28;20021;-76
2022/06/04 07:26:29;;;;;;;0.20;0.20;;;;;;;19.35;51.09;102197.00;5051215;28;20040;-75
2022/06/04 07:28:56;;;;;;;0.00;0.00;;;;;;;19.49;51.03;102184.88;5050584;28;20422;-75
2022/06/04 07:31:23;;;;;;;1.15;1.05;;;;;;;19.64;50.86;102188.81;5050423;28;20086;-75
2022/06/04 07:33:55;;;;;;;0.03;0.03;;;;;;;19.72;51.01;102192.97;5042085;28;20167;-75
2022/06/04 07:36:25;;;;;;;;;;;;;;;19.94;49.74;102172.47;5047822;28;20045;-75
2022/06/04 07:38:52;;;;;;;2.83;0.93;;;;;;;19.72;49.90;102182.22;5035303;28;20003;-75
2022/06/04 07:41:24;;;;;;;1.35;1.25;;;;;;;19.79;49.70;102187.34;5046063;28;20380;-76
2022/06/04 07:43:51;;;;;;;0.10;0.10;;;;;;;19.86;50.52;102188.91;5055283;28;20036;-76
2022/06/04 07:46:19;;;;;;;0.13;0.13;;;;;;;19.97;50.07;102189.38;5036908;28;20458;-76
2022/06/04 07:48:46;;;;;;;0.10;0.10;;;;;;;20.11;50.06;102185.28;5039218;28;20029;-76
2022/06/04 07:51:14;;;;;;;0.00;0.00;;;;;;;20.24;49.51;102189.25;5044379;28;20585;-75
2022/06/04 07:53:40;;;;;;;0.20;0.20;;;;;;;20.36;49.52;102196.84;5050312;28;20021;-75
2022/06/04 07:56:08;;;;;;;0.10;0.10;;;;;;;20.42;48.82;102192.16;5046000;28;20037;-76
2022/06/04 07:58:35;;;;;;;0.63;0.63;;;;;;;20.43;49.61;102183.16;5046182;28;20056;-76
2022/06/04 08:01:03;;;;;;;0.10;0.10;;;;;;;20.33;48.55;102178.13;5031796;28;20025;-76
2022/06/04 08:03:30;;;;;;;0.10;0.10;;;;;;;20.24;48.71;102166.84;5037210;28;20449;-77
2022/06/04 08:05:56;;;;;;;0.10;0.10;;;;;;;20.33;48.83;102172.75;5034998;28;20065;-77
2022/06/04 08:08:22;;;;;;;0.10;0.10;;;;;;;20.39;48.61;102170.72;5042388;28;20033;-76
2022/06/04 08:10:50;;;;;;;0.47;0.47;;;;;;;20.49;49.15;102177.53;5035607;28;20033;-76
2022/06/04 08:13:23;;;;;;;1.15;1.08;;;;;;;20.54;48.96;102183.59;5048082;28;20163;-77
2022/06/04 08:15:49;;;;;;;0.10;0.10;;;;;;;20.59;48.60;102184.28;5043447;28;20044;-77
2022/06/04 08:18:16;;;;;;;0.28;0.28;;;;;;;20.61;49.45;102181.50;5040459;28;20049;-77
2022/06/04 08:20:43;;;;;;;1.27;0.63;;;;;;;20.71;48.98;102190.09;5044393;28;20035;-76
2022/06/04 08:23:11;;;;;;;0.10;0.10;;;;;;;20.66;48.72;102191.16;5038194;28;20035;-76
2022/06/04 08:25:40;;;;;;;0.85;0.85;;;;;;;20.62;48.03;102180.56;5042018;28;20091;-76
2022/06/04 08:28:06;;;;;;;0.10;0.10;;;;;;;20.69;48.69;102184.78;5050285;28;20124;-76
2022/06/04 08:30:33;;;;;;;0.10;0.10;;;;;;;20.74;48.88;102188.19;5050298;28;20518;-76
2022/06/04 08:32:59;;;;;;;0.10;0.10;;;;;;;20.80;48.59;102192.47;5048085;28;20034;-76
2022/06/04 08:35:26;;;;;;;0.63;0.63;;;;;;;20.86;48.28;102192.19;5050046;28;20783;-76
2022/06/04 08:37:52;;;;;;;0.25;0.25;;;;;;;21.00;48.24;102205.09;5040473;28;20033;-77
2022/06/04 08:45:44;;;;;;;0.10;0.10;;;;;;;21.25;48.19;102204.91;5078464;27;1884949;-77
2022/06/04 08:48:21;;;;;;;0.10;0.10;;;;;;;21.30;47.33;102202.88;5124869;28;20106;-77
2022/06/04 08:50:48;;;;;;;0.10;0.10;;;;;;;21.40;47.47;102202.47;5123652;28;20045;-77
2022/06/04 08:53:20;;;;;;;0.88;0.45;;;;;;;21.56;47.40;102197.28;5134201;28;20343;-77
2022/06/04 09:01:38;;;;;;;0.20;0.20;;;;;;;21.68;47.50;102191.34;5115749;27;1175668;-77
2022/06/04 09:07:25;;;;;;;0.10;0.10;;;;;;;21.88;45.75;102206.66;5097830;27;20362;-75
2022/06/04 09:10:01;;;;;;;0.10;0.10;;;;;;;21.96;46.56;102201.75;5071484;28;20036;-78
2022/06/04 09:12:40;;;;;;;0.70;0.55;;;;;;;22.03;46.81;102206.84;5069692;28;20017;-77
2022/06/04 09:15:29;;;;;;;0.30;0.30;;;;;;;22.17;46.07;102204.41;5078598;28;20031;-76
2022/06/04 09:17:58;;;;;;;0.00;0.00;;;;;;;22.05;45.56;102211.22;5084109;28;20028;-77
2022/06/04 09:20:43;;;;;;;0.00;0.00;;;;;;;22.27;46.01;102203.00;5085243;28;20035;-77
2022/06/04 09:26:13;;;;;;;0.10;0.10;;;;;;;22.48;45.81;102208.34;5067468;28;20390;-76
2022/06/04 09:29:06;;;;;;;0.30;0.30;;;;;;;22.59;45.60;102205.09;5061876;28;20047;-76
2022/06/04 09:31:52;;;;;;;4.30;0.70;;;;;;;22.61;45.33;102209.47;5060231;28;20033;-76
2022/06/04 09:34:31;;;;;;;0.00;0.00;;;;;;;22.60;45.21;102202.34;5058730;28;20067;-76
2022/06/04 09:36:58;;;;;;;0.05;0.05;;;;;;;22.76;45.18;102206.97;5058506;28;20029;-76
2022/06/04 09:39:28;;;;;;;0.00;0.00;;;;;;;22.76;44.68;102201.56;5057613;28;20108;-76
2022/06/04 09:44:47;;;;;;;0.25;0.25;;;;;;;22.90;45.21;102204.47;5069139;28;20368;-76
2022/06/04 09:47:21;;;;;;;0.30;0.30;;;;;;;23.00;44.82;102198.59;5067359;28;20071;-76
2022/06/04 09:50:13;;;;;;;0.10;0.10;;;;;;;23.05;44.85;102207.31;5067261;28;20038;-78
2022/06/04 09:52:43;;;;;;;0.03;0.03;;;;;;;23.11;44.79;102204.31;5048282;28;20472;-77
2022/06/04 09:57:58;;;;;;;0.20;0.20;;;;;;;23.35;44.51;102202.22;5062721;28;20399;-76
2022/06/04 10:00:30;;;;;;;0.90;0.57;;;;;;;23.42;44.46;102189.22;5046452;28;20057;-76
2022/06/04 10:02:59;;;;;;;0.05;0.05;;;;;;;23.47;44.48;102192.56;5046546;28;20045;-77
2022/06/04 10:05:28;;;;;;;0.10;0.10;;;;;;;23.50;44.25;102195.13;5045518;28;20049;-77
2022/06/04 10:07:56;;;;;;;0.10;0.10;;;;;;;23.53;43.91;102197.63;5048606;28;20121;-77
2022/06/04 10:13:43;;;;;;;1.00;0.95;;;;;;;23.65;44.28;102201.53;5108169;27;20916;-77
2022/06/04 10:15:59;;;;;;;0.03;0.03;;;;;;;23.65;43.70;102216.88;5123375;28;20086;-77
2022/06/04 10:18:30;;;;;;;0.08;0.08;;;;;;;23.72;43.77;102210.19;5104572;28;20481;-77
2022/06/04 10:23:43;;;;;;;0.38;0.38;;;;;;;23.84;44.47;102206.81;5128941;27;20139;-77
2022/06/04 10:34:48;;;;;;;0.35;0.35;;;;;;;23.70;44.26;102196.75;5104086;27;20928;-77
2022/06/04 10:37:54;;;;;;;0.25;0.25;;;;;;;23.81;44.39;102196.13;5110471;28;20113;-77
2022/06/04 10:46:24;;;;;;;0.10;0.10;;;;;;;23.67;44.20;102196.03;5096853;27;1177129;-76
2022/06/04 10:54:21;;;;;;;0.10;0.10;;;;;;;23.37;45.01;102191.31;5103143;27;20407;-76
2022/06/04 10:56:58;;;;;;;0.00;0.00;;;;;;;23.19;45.85;102199.44;5104360;28;20035;-76
2022/06/04 10:59:54;;;;;;;0.35;0.35;;;;;;;23.12;45.58;102202.50;5096740;28;20055;-77
2022/06/04 11:05:06;;;;;;;0.00;0.00;;;;;;;22.93;46.26;102204.31;5108880;27;20391;-77
2022/06/04 11:07:57;;;;;;;0.10;0.10;;;;;;;23.01;45.79;102189.53;5125778;28;20413;-77
2022/06/04 11:15:50;;;;;;;0.28;0.28;;;;;;;22.84;46.55;102198.47;5044323;28;22087;-75
2022/06/04 11:21:18;;;;;;;0.50;0.50;;;;;;;22.79;47.09;102201.41;5070654;28;20396;-77
2022/06/04 11:24:12;;;;;;;0.20;0.20;;;;;;;22.90;46.50;102198.19;5073572;28;20512;-78
2022/06/04 11:26:44;;;;;;;0.10;0.10;;;;;;;22.90;46.84;102188.25;5077877;28;20048;-79
2022/06/04 11:29:12;;;;;;;0.10;0.10;;;;;;;23.00;46.34;102204.00;5078187;28;20050;-77
2022/06/04 11:48:54;;;;;;;0.05;0.05;;;;;;;23.51;45.79;102210.34;5108447;27;20388;-77
2022/06/04 11:54:29;;;;;;;1.02;0.47;;;;;;;23.65;45.49;102197.94;5063230;28;20764;-76
2022/06/04 12:02:48;;;;;;;0.10;0.10;;;;;;;23.56;46.22;102194.78;5066598;27;20421;-76
2022/06/04 12:07:54;;;;;;;0.60;0.60;;;;;;;23.61;46.14;102185.53;5116289;27;1159005;-78
2022/06/04 12:13:04;;;;;;;0.30;0.30;;;;;;;23.55;46.23;102198.44;5126195;27;20416;-76
2022/06/04 12:16:02;;;;;;;0.17;0.17;;;;;;;23.73;46.81;102195.69;5109707;28;20030;-74
2022/06/04 12:24:35;;;;;;;0.55;0.55;;;;;;;24.18;45.03;102177.03;5063838;28;20056;-78
2022/06/04 12:27:21;;;;;;;0.20;0.20;;;;;;;24.47;45.17;102177.19;5063790;28;20398;-81
2022/06/04 12:29:49;;;;;;;0.10;0.10;;;;;;;24.68;44.57;102177.78;5051818;28;20055;-78
2022/06/04 12:32:34;;;;;;;0.10;0.10;;;;;;;25.00;44.08;102169.59;5041659;28;20041;-77
2022/06/04 12:37:50;;;;;;;0.10;0.10;;;;;;;25.33;42.68;102166.66;5111747;27;1196889;-76
2022/06/04 12:43:06;;;;;;;0.10;0.10;;;;;;;25.55;42.63;102165.34;5109253;27;20355;-76
2022/06/04 12:45:39;;;;;;;0.00;0.00;;;;;;;25.69;42.80;102172.59;5110293;28;20035;-77
2022/06/04 12:51:13;;;;;;;0.57;0.57;;;;;;;26.18;41.50;102170.47;5004499;28;20721;-75
2022/06/04 12:54:02;;;;;;;0.15;0.15;;;;;;;26.31;41.44;102164.09;5005266;28;20491;-76
2022/06/04 12:56:34;;;;;;;0.05;0.05;;;;;;;26.26;41.67;102160.81;5005109;28;20499;-76
2022/06/04 12:59:03;;;;;;;0.10;0.10;;;;;;;26.08;41.51;102157.50;5005096;28;20046;-76
2022/06/04 13:06:58;;;;;;;0.10;0.10;;;;;;;26.16;42.21;102152.41;5109781;27;20768;-77
2022/06/04 13:12:13;;;;;;;0.35;0.35;;;;;;;26.21;41.37;102162.13;5081962;28;20707;-77
2022/06/04 13:20:12;;;;;;;0.00;0.00;;;;;;;26.62;41.17;102155.78;5108726;27;20339;-76
2022/06/04 13:22:51;;;;;;;0.13;0.13;;;;;;;26.64;42.23;102142.94;5108132;28;20043;-76
2022/06/04 13:25:24;;;;;;;0.13;0.13;;;;;;;26.90;41.22;102148.47;5107784;28;20393;-77
2022/06/04 13:27:53;;;;;;;0.60;0.60;;;;;;;27.10;41.27;102149.78;5094983;28;20052;-77
2022/06/04 13:30:25;;;;;;;0.22;0.22;;;;;;;27.21;42.05;102151.78;5088064;28;20052;-76
2022/06/04 13:32:51;;;;;;;0.10;0.10;;;;;;;27.19;40.52;102134.69;5087632;28;20024;-76
2022/06/04 13:35:21;;;;;;;0.20;0.20;;;;;;;27.37;40.64;102125.22;5088330;28;20375;-77
2022/06/04 13:37:50;;;;;;;0.10;0.10;;;;;;;27.38;40.02;102129.69;5087994;28;20059;-77
2022/06/04 13:40:23;;;;;;;0.22;0.22;;;;;;;27.40;39.00;102122.31;5088249;28;20034;-76
2022/06/04 13:42:53;;;;;;;0.15;0.15;;;;;;;27.27;39.53;102118.69;5086175;28;20028;-77
2022/06/04 13:48:19;;;;;;;0.60;0.50;;;;;;;27.54;39.40;102118.59;5069113;28;20402;-76
2022/06/04 13:50:50;;;;;;;0.10;0.10;;;;;;;27.63;39.77;102117.06;5068286;28;20029;-76
2022/06/04 13:53:20;;;;;;;0.00;0.00;;;;;;;27.67;38.74;102120.44;5068804;28;20112;-77
2022/06/04 13:55:58;;;;;;;0.10;0.10;;;;;;;27.76;37.87;102120.63;5069108;28;20028;-77
2022/06/04 13:58:34;;;;;;;0.55;0.32;;;;;;;27.68;38.79;102123.03;5072090;28;20123;-77
2022/06/04 14:01:10;;;;;;;0.22;0.22;;;;;;;27.66;38.74;102107.78;5063812;28;20396;-77
2022/06/04 14:03:45;;;;;;;0.10;0.10;;;;;;;27.74;38.58;102116.28;5068751;28;20037;-76
2022/06/04 14:06:12;;;;;;;0.00;0.00;;;;;;;27.87;39.17;102110.78;5070779;28;20025;-76
2022/06/04 14:08:49;;;;;;;0.32;0.30;;;;;;;27.94;38.04;102093.03;5074419;28;20099;-77
2022/06/04 14:11:55;;;;;;;0.50;0.50;;;;;;;28.12;37.80;102092.66;5070195;28;20024;-77
2022/06/04 14:17:39;;;;;;;1.02;0.57;;;;;;;28.15;37.23;102090.59;5109621;27;20109;-77
2022/06/04 14:20:32;;;;;;;2.78;1.42;;;;;;;28.14;38.08;102091.56;5108981;28;20039;-77
2022/06/04 14:34:27;;;;;;;0.17;0.17;;;;;;;28.63;36.60;102077.88;5068983;28;20358;-76
2022/06/04 14:36:55;;;;;;;0.00;0.00;;;;;;;28.73;36.71;102082.50;5067592;28;20745;-77
2022/06/04 14:39:26;;;;;;;0.25;0.25;;;;;;;28.69;36.30;102080.16;5061640;28;20056;-76
2022/06/04 14:47:39;;;;;;;0.20;0.20;;;;;;;28.93;34.52;102065.59;5089172;28;20328;-76
2022/06/04 14:52:45;;;;;;;0.35;0.35;;;;;;;28.99;36.16;102068.69;5067438;28;20379;-76